sensor_id;sensor_type;location;lat;lon;timestamp;P1;durP1;ratioP1;P2;durP2;ratioP2
77362;SDS011;66428;47.322;9.432;2024-01-30T00:00:36;1.05;;;0.70;;
77362;SDS011;66428;47.322;9.432;2024-01-30T00:03:05;1.10;;;0.60;;
77362;SDS011;66428;47.322;9.432;2024-01-30T00:05:33;1.30;;;0.80;;
77362;SDS011;66428;47.322;9.432;2024-01-30T00:08:05;2.08;;;0.90;;
77362;SDS011;66428;47.322;9.432;2024-01-30T00:10:33;0.68;;;0.55;;
77362;SDS011;66428;47.322;9.432;2024-01-30T00:13:01;0.73;;;0.52;;
77362;SDS011;66428;47.322;9.432;2024-01-30T00:15:29;1.10;;;0.70;;
77362;SDS011;66428;47.322;9.432;2024-01-30T00:17:57;2.00;;;1.10;;
77362;SDS011;66428;47.322;9.432;2024-01-30T00:20:28;1.02;;;0.63;;
77362;SDS011;66428;47.322;9.432;2024-01-30T00:22:55;1.50;;;0.70;;
77362;SDS011;66428;47.322;9.432;2024-01-30T00:25:25;0.63;;;0.60;;
77362;SDS011;66428;47.322;9.432;2024-01-30T00:27:53;0.75;;;0.52;;
77362;SDS011;66428;47.322;9.432;2024-01-30T00:30:20;1.13;;;0.60;;
77362;SDS011;66428;47.322;9.432;2024-01-30T00:32:48;1.50;;;0.88;;
77362;SDS011;66428;47.322;9.432;2024-01-30T00:35:16;1.58;;;0.90;;
77362;SDS011;66428;47.322;9.432;2024-01-30T00:37:44;1.52;;;0.75;;
77362;SDS011;66428;47.322;9.432;2024-01-30T00:40:12;1.52;;;0.90;;
77362;SDS011;66428;47.322;9.432;2024-01-30T00:42:44;1.02;;;0.65;;
77362;SDS011;66428;47.322;9.432;2024-01-30T00:45:13;1.73;;;0.70;;
77362;SDS011;66428;47.322;9.432;2024-01-30T00:47:40;1.73;;;0.80;;
77362;SDS011;66428;47.322;9.432;2024-01-30T00:50:09;1.92;;;0.98;;
77362;SDS011;66428;47.322;9.432;2024-01-30T00:52:37;1.23;;;0.75;;
77362;SDS011;66428;47.322;9.432;2024-01-30T00:55:07;3.47;;;0.93;;
77362;SDS011;66428;47.322;9.432;2024-01-30T00:57:38;2.97;;;1.00;;
77362;SDS011;66428;47.322;9.432;2024-01-30T01:00:14;1.10;;;0.65;;
77362;SDS011;66428;47.322;9.432;2024-01-30T01:02:43;1.10;;;0.73;;
77362;SDS011;66428;47.322;9.432;2024-01-30T01:05:14;1.20;;;0.68;;
77362;SDS011;66428;47.322;9.432;2024-01-30T01:07:42;1.92;;;1.00;;
77362;SDS011;66428;47.322;9.432;2024-01-30T01:10:13;1.52;;;0.77;;
77362;SDS011;66428;47.322;9.432;2024-01-30T01:12:41;1.45;;;0.80;;
77362;SDS011;66428;47.322;9.432;2024-01-30T01:15:09;1.40;;;0.68;;
77362;SDS011;66428;47.322;9.432;2024-01-30T01:17:38;1.23;;;0.85;;
77362;SDS011;66428;47.322;9.432;2024-01-30T01:20:07;1.05;;;0.65;;
77362;SDS011;66428;47.322;9.432;2024-01-30T01:22:37;1.20;;;0.85;;
77362;SDS011;66428;47.322;9.432;2024-01-30T01:25:06;1.02;;;0.55;;
77362;SDS011;66428;47.322;9.432;2024-01-30T01:27:35;1.05;;;0.75;;
77362;SDS011;66428;47.322;9.432;2024-01-30T01:30:08;1.15;;;0.75;;
77362;SDS011;66428;47.322;9.432;2024-01-30T01:32:37;1.60;;;0.93;;
77362;SDS011;66428;47.322;9.432;2024-01-30T01:35:13;1.15;;;0.63;;
77362;SDS011;66428;47.322;9.432;2024-01-30T01:37:41;1.40;;;0.75;;
77362;SDS011;66428;47.322;9.432;2024-01-30T01:40:09;0.63;;;0.50;;
77362;SDS011;66428;47.322;9.432;2024-01-30T01:42:37;2.15;;;1.17;;
77362;SDS011;66428;47.322;9.432;2024-01-30T01:45:05;1.73;;;0.82;;
77362;SDS011;66428;47.322;9.432;2024-01-30T01:47:33;1.13;;;0.57;;
77362;SDS011;66428;47.322;9.432;2024-01-30T01:50:03;1.38;;;0.90;;
77362;SDS011;66428;47.322;9.432;2024-01-30T01:52:31;1.02;;;0.75;;
77362;SDS011;66428;47.322;9.432;2024-01-30T01:54:59;1.67;;;0.88;;
77362;SDS011;66428;47.322;9.432;2024-01-30T01:57:27;1.17;;;0.70;;
77362;SDS011;66428;47.322;9.432;2024-01-30T01:59:57;1.38;;;0.70;;
77362;SDS011;66428;47.322;9.432;2024-01-30T02:02:28;1.17;;;0.80;;
77362;SDS011;66428;47.322;9.432;2024-01-30T02:04:57;1.02;;;0.70;;
77362;SDS011;66428;47.322;9.432;2024-01-30T02:07:29;1.20;;;0.80;;
77362;SDS011;66428;47.322;9.432;2024-01-30T02:09:57;1.20;;;0.75;;
77362;SDS011;66428;47.322;9.432;2024-01-30T02:12:25;1.00;;;0.70;;
77362;SDS011;66428;47.322;9.432;2024-01-30T02:14:53;1.40;;;0.82;;
77362;SDS011;66428;47.322;9.432;2024-01-30T02:17:21;1.50;;;1.00;;
77362;SDS011;66428;47.322;9.432;2024-01-30T02:19:50;1.42;;;0.73;;
77362;SDS011;66428;47.322;9.432;2024-01-30T02:22:19;3.42;;;0.80;;
77362;SDS011;66428;47.322;9.432;2024-01-30T02:24:47;1.90;;;0.70;;
77362;SDS011;66428;47.322;9.432;2024-01-30T02:27:15;2.78;;;1.25;;
77362;SDS011;66428;47.322;9.432;2024-01-30T02:29:43;3.33;;;0.90;;
77362;SDS011;66428;47.322;9.432;2024-01-30T02:32:11;1.27;;;0.73;;
77362;SDS011;66428;47.322;9.432;2024-01-30T02:34:39;1.10;;;0.70;;
77362;SDS011;66428;47.322;9.432;2024-01-30T02:37:07;1.05;;;0.63;;
77362;SDS011;66428;47.322;9.432;2024-01-30T02:39:36;1.27;;;0.88;;
77362;SDS011;66428;47.322;9.432;2024-01-30T02:42:04;0.80;;;0.75;;
77362;SDS011;66428;47.322;9.432;2024-01-30T02:44:32;1.00;;;0.70;;
77362;SDS011;66428;47.322;9.432;2024-01-30T02:47:03;1.90;;;0.93;;
77362;SDS011;66428;47.322;9.432;2024-01-30T02:49:31;1.15;;;0.65;;
77362;SDS011;66428;47.322;9.432;2024-01-30T02:51:59;1.38;;;0.77;;
77362;SDS011;66428;47.322;9.432;2024-01-30T02:54:26;1.02;;;0.60;;
77362;SDS011;66428;47.322;9.432;2024-01-30T02:56:56;0.98;;;0.57;;
77362;SDS011;66428;47.322;9.432;2024-01-30T02:59:23;1.20;;;0.70;;
77362;SDS011;66428;47.322;9.432;2024-01-30T03:01:54;1.27;;;0.70;;
77362;SDS011;66428;47.322;9.432;2024-01-30T03:04:22;2.67;;;0.57;;
77362;SDS011;66428;47.322;9.432;2024-01-30T03:06:50;1.35;;;0.70;;
77362;SDS011;66428;47.322;9.432;2024-01-30T03:09:18;2.45;;;0.85;;
77362;SDS011;66428;47.322;9.432;2024-01-30T03:11:48;1.02;;;0.50;;
77362;SDS011;66428;47.322;9.432;2024-01-30T03:14:17;1.42;;;0.73;;
77362;SDS011;66428;47.322;9.432;2024-01-30T03:16:47;1.92;;;0.82;;
77362;SDS011;66428;47.322;9.432;2024-01-30T03:19:15;1.58;;;0.82;;
77362;SDS011;66428;47.322;9.432;2024-01-30T03:21:43;2.10;;;0.80;;
77362;SDS011;66428;47.322;9.432;2024-01-30T03:24:11;1.27;;;0.88;;
77362;SDS011;66428;47.322;9.432;2024-01-30T03:26:39;2.05;;;0.93;;
77362;SDS011;66428;47.322;9.432;2024-01-30T03:29:07;1.25;;;0.70;;
77362;SDS011;66428;47.322;9.432;2024-01-30T03:31:36;1.40;;;0.90;;
77362;SDS011;66428;47.322;9.432;2024-01-30T03:34:06;1.77;;;0.90;;
77362;SDS011;66428;47.322;9.432;2024-01-30T03:36:34;1.75;;;0.90;;
77362;SDS011;66428;47.322;9.432;2024-01-30T03:39:03;2.03;;;1.52;;
77362;SDS011;66428;47.322;9.432;2024-01-30T03:41:31;1.88;;;0.77;;
77362;SDS011;66428;47.322;9.432;2024-01-30T03:43:59;1.00;;;0.60;;
77362;SDS011;66428;47.322;9.432;2024-01-30T03:46:29;1.25;;;0.80;;
77362;SDS011;66428;47.322;9.432;2024-01-30T03:48:58;2.25;;;0.60;;
77362;SDS011;66428;47.322;9.432;2024-01-30T03:51:26;1.63;;;0.60;;
77362;SDS011;66428;47.322;9.432;2024-01-30T03:53:54;2.50;;;1.00;;
77362;SDS011;66428;47.322;9.432;2024-01-30T03:56:22;1.15;;;0.77;;
77362;SDS011;66428;47.322;9.432;2024-01-30T03:58:52;1.67;;;0.95;;
77362;SDS011;66428;47.322;9.432;2024-01-30T04:01:20;1.02;;;0.70;;
77362;SDS011;66428;47.322;9.432;2024-01-30T04:03:48;1.52;;;0.80;;
77362;SDS011;66428;47.322;9.432;2024-01-30T04:06:17;2.88;;;0.82;;
77362;SDS011;66428;47.322;9.432;2024-01-30T04:08:47;1.30;;;0.98;;
77362;SDS011;66428;47.322;9.432;2024-01-30T04:11:15;3.10;;;1.00;;
77362;SDS011;66428;47.322;9.432;2024-01-30T04:13:45;5.82;;;0.90;;
77362;SDS011;66428;47.322;9.432;2024-01-30T04:16:19;1.42;;;0.90;;
77362;SDS011;66428;47.322;9.432;2024-01-30T04:18:47;2.08;;;1.13;;
77362;SDS011;66428;47.322;9.432;2024-01-30T04:21:15;1.52;;;0.90;;
77362;SDS011;66428;47.322;9.432;2024-01-30T04:23:44;1.65;;;1.08;;
77362;SDS011;66428;47.322;9.432;2024-01-30T04:26:14;3.50;;;0.80;;
77362;SDS011;66428;47.322;9.432;2024-01-30T04:28:42;3.22;;;1.23;;
77362;SDS011;66428;47.322;9.432;2024-01-30T04:31:09;1.15;;;0.70;;
77362;SDS011;66428;47.322;9.432;2024-01-30T04:33:40;2.33;;;0.75;;
77362;SDS011;66428;47.322;9.432;2024-01-30T04:36:10;1.25;;;0.85;;
77362;SDS011;66428;47.322;9.432;2024-01-30T04:38:40;1.90;;;1.05;;
77362;SDS011;66428;47.322;9.432;2024-01-30T04:41:10;1.80;;;0.93;;
77362;SDS011;66428;47.322;9.432;2024-01-30T04:43:37;4.00;;;1.50;;
77362;SDS011;66428;47.322;9.432;2024-01-30T04:46:07;6.85;;;2.40;;
77362;SDS011;66428;47.322;9.432;2024-01-30T04:48:35;6.03;;;2.35;;
77362;SDS011;66428;47.322;9.432;2024-01-30T04:51:03;4.45;;;2.20;;
77362;SDS011;66428;47.322;9.432;2024-01-30T04:53:31;4.18;;;2.17;;
77362;SDS011;66428;47.322;9.432;2024-01-30T04:55:59;5.05;;;2.03;;
77362;SDS011;66428;47.322;9.432;2024-01-30T04:58:28;8.40;;;2.92;;
77362;SDS011;66428;47.322;9.432;2024-01-30T05:00:56;5.15;;;2.20;;
77362;SDS011;66428;47.322;9.432;2024-01-30T05:03:27;6.60;;;2.58;;
77362;SDS011;66428;47.322;9.432;2024-01-30T05:05:58;2.88;;;1.58;;
77362;SDS011;66428;47.322;9.432;2024-01-30T05:08:26;3.70;;;1.70;;
77362;SDS011;66428;47.322;9.432;2024-01-30T05:10:53;4.03;;;1.60;;
77362;SDS011;66428;47.322;9.432;2024-01-30T05:13:21;3.42;;;2.05;;
77362;SDS011;66428;47.322;9.432;2024-01-30T05:15:50;4.13;;;1.77;;
77362;SDS011;66428;47.322;9.432;2024-01-30T05:18:18;3.42;;;1.63;;
77362;SDS011;66428;47.322;9.432;2024-01-30T05:20:46;39.25;;;15.50;;
77362;SDS011;66428;47.322;9.432;2024-01-30T05:23:14;51.85;;;26.45;;
77362;SDS011;66428;47.322;9.432;2024-01-30T05:25:42;37.33;;;20.08;;
77362;SDS011;66428;47.322;9.432;2024-01-30T05:28:10;7.97;;;5.28;;
77362;SDS011;66428;47.322;9.432;2024-01-30T05:30:41;4.68;;;2.45;;
77362;SDS011;66428;47.322;9.432;2024-01-30T05:33:10;2.70;;;1.70;;
77362;SDS011;66428;47.322;9.432;2024-01-30T05:35:40;2.70;;;1.15;;
77362;SDS011;66428;47.322;9.432;2024-01-30T05:38:07;3.80;;;1.85;;
77362;SDS011;66428;47.322;9.432;2024-01-30T05:40:38;4.32;;;1.60;;
77362;SDS011;66428;47.322;9.432;2024-01-30T05:43:05;4.68;;;1.98;;
77362;SDS011;66428;47.322;9.432;2024-01-30T05:45:34;5.20;;;2.88;;
77362;SDS011;66428;47.322;9.432;2024-01-30T05:48:05;6.25;;;3.53;;
77362;SDS011;66428;47.322;9.432;2024-01-30T05:50:34;5.90;;;3.65;;
77362;SDS011;66428;47.322;9.432;2024-01-30T05:53:02;9.50;;;5.88;;
77362;SDS011;66428;47.322;9.432;2024-01-30T05:55:30;13.23;;;6.93;;
77362;SDS011;66428;47.322;9.432;2024-01-30T05:57:57;4.93;;;3.30;;
77362;SDS011;66428;47.322;9.432;2024-01-30T06:00:25;26.13;;;12.13;;
77362;SDS011;66428;47.322;9.432;2024-01-30T06:02:53;20.80;;;10.77;;
77362;SDS011;66428;47.322;9.432;2024-01-30T06:05:21;13.40;;;6.07;;
77362;SDS011;66428;47.322;9.432;2024-01-30T06:07:50;11.27;;;6.53;;
77362;SDS011;66428;47.322;9.432;2024-01-30T06:10:18;7.38;;;3.53;;
77362;SDS011;66428;47.322;9.432;2024-01-30T06:12:49;9.27;;;5.45;;
77362;SDS011;66428;47.322;9.432;2024-01-30T06:15:17;6.57;;;4.57;;
77362;SDS011;66428;47.322;9.432;2024-01-30T06:17:44;6.95;;;4.60;;
77362;SDS011;66428;47.322;9.432;2024-01-30T06:20:12;6.25;;;3.53;;
77362;SDS011;66428;47.322;9.432;2024-01-30T06:22:42;5.32;;;3.70;;
77362;SDS011;66428;47.322;9.432;2024-01-30T06:25:12;3.78;;;2.70;;
77362;SDS011;66428;47.322;9.432;2024-01-30T06:27:40;3.78;;;1.75;;
77362;SDS011;66428;47.322;9.432;2024-01-30T06:30:08;3.25;;;2.20;;
77362;SDS011;66428;47.322;9.432;2024-01-30T06:32:36;2.30;;;1.55;;
77362;SDS011;66428;47.322;9.432;2024-01-30T06:35:05;2.75;;;1.85;;
77362;SDS011;66428;47.322;9.432;2024-01-30T06:37:33;1.75;;;1.38;;
77362;SDS011;66428;47.322;9.432;2024-01-30T06:40:01;3.83;;;1.83;;
77362;SDS011;66428;47.322;9.432;2024-01-30T06:42:30;4.60;;;1.45;;
77362;SDS011;66428;47.322;9.432;2024-01-30T06:45:00;7.68;;;2.13;;
77362;SDS011;66428;47.322;9.432;2024-01-30T06:47:28;3.45;;;1.80;;
77362;SDS011;66428;47.322;9.432;2024-01-30T06:49:57;1.85;;;1.20;;
77362;SDS011;66428;47.322;9.432;2024-01-30T06:52:25;2.13;;;1.30;;
77362;SDS011;66428;47.322;9.432;2024-01-30T06:54:55;2.63;;;1.70;;
77362;SDS011;66428;47.322;9.432;2024-01-30T06:57:23;3.15;;;1.45;;
77362;SDS011;66428;47.322;9.432;2024-01-30T06:59:56;3.03;;;1.83;;
77362;SDS011;66428;47.322;9.432;2024-01-30T07:02:23;3.88;;;1.80;;
77362;SDS011;66428;47.322;9.432;2024-01-30T07:04:54;3.20;;;1.48;;
77362;SDS011;66428;47.322;9.432;2024-01-30T07:07:22;3.75;;;1.90;;
77362;SDS011;66428;47.322;9.432;2024-01-30T07:09:52;3.80;;;2.25;;
77362;SDS011;66428;47.322;9.432;2024-01-30T07:12:24;3.45;;;2.22;;
77362;SDS011;66428;47.322;9.432;2024-01-30T07:14:56;3.72;;;1.90;;
77362;SDS011;66428;47.322;9.432;2024-01-30T07:17:28;2.97;;;1.90;;
77362;SDS011;66428;47.322;9.432;2024-01-30T07:19:58;2.70;;;1.95;;
77362;SDS011;66428;47.322;9.432;2024-01-30T07:22:26;3.80;;;2.35;;
77362;SDS011;66428;47.322;9.432;2024-01-30T07:24:54;4.82;;;3.20;;
77362;SDS011;66428;47.322;9.432;2024-01-30T07:27:22;4.80;;;2.63;;
77362;SDS011;66428;47.322;9.432;2024-01-30T07:29:49;8.50;;;4.82;;
77362;SDS011;66428;47.322;9.432;2024-01-30T07:32:21;7.55;;;4.70;;
77362;SDS011;66428;47.322;9.432;2024-01-30T07:34:51;4.82;;;2.88;;
77362;SDS011;66428;47.322;9.432;2024-01-30T07:37:35;4.68;;;2.42;;
77362;SDS011;66428;47.322;9.432;2024-01-30T07:40:04;3.22;;;2.10;;
77362;SDS011;66428;47.322;9.432;2024-01-30T07:42:33;5.28;;;2.53;;
77362;SDS011;66428;47.322;9.432;2024-01-30T07:45:01;4.15;;;2.42;;
77362;SDS011;66428;47.322;9.432;2024-01-30T07:47:30;4.25;;;2.88;;
77362;SDS011;66428;47.322;9.432;2024-01-30T07:49:58;9.63;;;3.35;;
77362;SDS011;66428;47.322;9.432;2024-01-30T07:52:28;5.38;;;3.28;;
77362;SDS011;66428;47.322;9.432;2024-01-30T07:54:56;8.02;;;3.97;;
77362;SDS011;66428;47.322;9.432;2024-01-30T07:57:24;9.43;;;3.33;;
77362;SDS011;66428;47.322;9.432;2024-01-30T07:59:52;7.93;;;3.03;;
77362;SDS011;66428;47.322;9.432;2024-01-30T08:02:20;5.75;;;2.90;;
77362;SDS011;66428;47.322;9.432;2024-01-30T08:04:50;6.53;;;2.58;;
77362;SDS011;66428;47.322;9.432;2024-01-30T08:07:18;7.57;;;2.97;;
77362;SDS011;66428;47.322;9.432;2024-01-30T08:09:46;4.03;;;2.38;;
77362;SDS011;66428;47.322;9.432;2024-01-30T08:12:14;5.15;;;3.90;;
77362;SDS011;66428;47.322;9.432;2024-01-30T08:14:41;5.20;;;4.32;;
77362;SDS011;66428;47.322;9.432;2024-01-30T08:17:09;4.22;;;2.72;;
77362;SDS011;66428;47.322;9.432;2024-01-30T08:19:39;3.85;;;2.47;;
77362;SDS011;66428;47.322;9.432;2024-01-30T08:22:09;3.60;;;2.30;;
77362;SDS011;66428;47.322;9.432;2024-01-30T08:24:36;5.70;;;2.03;;
77362;SDS011;66428;47.322;9.432;2024-01-30T08:27:06;3.40;;;2.60;;
77362;SDS011;66428;47.322;9.432;2024-01-30T08:29:38;4.55;;;3.05;;
77362;SDS011;66428;47.322;9.432;2024-01-30T08:32:06;5.78;;;2.70;;
77362;SDS011;66428;47.322;9.432;2024-01-30T08:34:34;4.50;;;2.72;;
77362;SDS011;66428;47.322;9.432;2024-01-30T08:37:02;3.95;;;2.65;;
77362;SDS011;66428;47.322;9.432;2024-01-30T08:39:31;4.40;;;2.58;;
77362;SDS011;66428;47.322;9.432;2024-01-30T08:42:01;4.35;;;1.98;;
77362;SDS011;66428;47.322;9.432;2024-01-30T08:44:29;2.90;;;1.83;;
77362;SDS011;66428;47.322;9.432;2024-01-30T08:46:57;4.43;;;2.08;;
77362;SDS011;66428;47.322;9.432;2024-01-30T08:49:26;3.30;;;2.22;;
77362;SDS011;66428;47.322;9.432;2024-01-30T08:51:54;6.78;;;3.05;;
77362;SDS011;66428;47.322;9.432;2024-01-30T08:54:22;2.97;;;2.00;;
77362;SDS011;66428;47.322;9.432;2024-01-30T08:56:51;2.75;;;1.42;;
77362;SDS011;66428;47.322;9.432;2024-01-30T08:59:20;3.50;;;1.65;;
77362;SDS011;66428;47.322;9.432;2024-01-30T09:01:47;2.60;;;1.70;;
77362;SDS011;66428;47.322;9.432;2024-01-30T09:04:29;4.40;;;2.20;;
77362;SDS011;66428;47.322;9.432;2024-01-30T09:06:57;5.72;;;3.60;;
77362;SDS011;66428;47.322;9.432;2024-01-30T09:09:25;7.30;;;3.83;;
77362;SDS011;66428;47.322;9.432;2024-01-30T09:11:56;5.03;;;3.45;;
77362;SDS011;66428;47.322;9.432;2024-01-30T09:14:31;6.75;;;3.45;;
77362;SDS011;66428;47.322;9.432;2024-01-30T09:17:01;5.00;;;2.95;;
77362;SDS011;66428;47.322;9.432;2024-01-30T09:19:29;4.85;;;2.85;;
77362;SDS011;66428;47.322;9.432;2024-01-30T09:22:00;3.33;;;2.60;;
77362;SDS011;66428;47.322;9.432;2024-01-30T09:24:28;3.58;;;2.10;;
77362;SDS011;66428;47.322;9.432;2024-01-30T09:26:57;6.80;;;2.17;;
77362;SDS011;66428;47.322;9.432;2024-01-30T09:29:27;17.20;;;6.50;;
77362;SDS011;66428;47.322;9.432;2024-01-30T09:31:55;20.52;;;8.20;;
77362;SDS011;66428;47.322;9.432;2024-01-30T09:34:23;4.88;;;2.90;;
77362;SDS011;66428;47.322;9.432;2024-01-30T09:36:51;4.22;;;2.65;;
77362;SDS011;66428;47.322;9.432;2024-01-30T09:39:18;12.13;;;4.30;;
77362;SDS011;66428;47.322;9.432;2024-01-30T09:41:48;18.73;;;14.93;;
77362;SDS011;66428;47.322;9.432;2024-01-30T09:44:18;9.10;;;6.22;;
77362;SDS011;66428;47.322;9.432;2024-01-30T09:46:49;14.55;;;10.82;;
77362;SDS011;66428;47.322;9.432;2024-01-30T09:49:18;5.80;;;4.38;;
77362;SDS011;66428;47.322;9.432;2024-01-30T09:51:47;6.00;;;3.65;;
77362;SDS011;66428;47.322;9.432;2024-01-30T09:54:18;7.03;;;4.95;;
77362;SDS011;66428;47.322;9.432;2024-01-30T09:56:48;5.35;;;4.47;;
77362;SDS011;66428;47.322;9.432;2024-01-30T09:59:18;4.93;;;3.22;;
77362;SDS011;66428;47.322;9.432;2024-01-30T10:01:48;5.70;;;2.92;;
77362;SDS011;66428;47.322;9.432;2024-01-30T10:04:16;5.78;;;2.45;;
77362;SDS011;66428;47.322;9.432;2024-01-30T10:06:44;4.10;;;1.85;;
77362;SDS011;66428;47.322;9.432;2024-01-30T10:09:13;4.53;;;1.63;;
77362;SDS011;66428;47.322;9.432;2024-01-30T10:11:41;3.08;;;1.83;;
77362;SDS011;66428;47.322;9.432;2024-01-30T10:14:09;3.50;;;1.52;;
77362;SDS011;66428;47.322;9.432;2024-01-30T10:16:38;3.08;;;1.27;;
77362;SDS011;66428;47.322;9.432;2024-01-30T10:19:06;6.68;;;1.92;;
77362;SDS011;66428;47.322;9.432;2024-01-30T10:21:34;2.60;;;1.70;;
77362;SDS011;66428;47.322;9.432;2024-01-30T10:24:05;2.80;;;1.30;;
77362;SDS011;66428;47.322;9.432;2024-01-30T10:26:33;3.00;;;1.38;;
77362;SDS011;66428;47.322;9.432;2024-01-30T10:29:01;3.45;;;1.88;;
77362;SDS011;66428;47.322;9.432;2024-01-30T10:31:32;2.65;;;1.45;;
77362;SDS011;66428;47.322;9.432;2024-01-30T10:34:01;2.58;;;1.27;;
77362;SDS011;66428;47.322;9.432;2024-01-30T10:36:42;4.63;;;1.73;;
77362;SDS011;66428;47.322;9.432;2024-01-30T10:39:14;2.85;;;1.60;;
77362;SDS011;66428;47.322;9.432;2024-01-30T10:41:44;2.95;;;1.45;;
77362;SDS011;66428;47.322;9.432;2024-01-30T10:44:19;4.47;;;1.90;;
77362;SDS011;66428;47.322;9.432;2024-01-30T10:46:50;3.35;;;1.90;;
77362;SDS011;66428;47.322;9.432;2024-01-30T10:49:26;2.92;;;1.73;;
77362;SDS011;66428;47.322;9.432;2024-01-30T10:51:55;5.75;;;2.20;;
77362;SDS011;66428;47.322;9.432;2024-01-30T10:54:23;4.40;;;1.77;;
77362;SDS011;66428;47.322;9.432;2024-01-30T10:56:51;4.65;;;2.03;;
77362;SDS011;66428;47.322;9.432;2024-01-30T10:59:19;3.92;;;2.38;;
77362;SDS011;66428;47.322;9.432;2024-01-30T11:01:47;4.60;;;2.10;;
77362;SDS011;66428;47.322;9.432;2024-01-30T11:04:19;7.57;;;1.98;;
77362;SDS011;66428;47.322;9.432;2024-01-30T11:06:50;5.13;;;3.13;;
77362;SDS011;66428;47.322;9.432;2024-01-30T11:09:20;4.05;;;2.10;;
77362;SDS011;66428;47.322;9.432;2024-01-30T11:11:49;7.13;;;2.55;;
77362;SDS011;66428;47.322;9.432;2024-01-30T11:14:23;6.43;;;2.17;;
77362;SDS011;66428;47.322;9.432;2024-01-30T11:16:53;4.45;;;2.70;;
77362;SDS011;66428;47.322;9.432;2024-01-30T11:19:23;6.65;;;2.75;;
77362;SDS011;66428;47.322;9.432;2024-01-30T11:21:54;6.07;;;2.80;;
77362;SDS011;66428;47.322;9.432;2024-01-30T11:24:24;6.32;;;3.58;;
77362;SDS011;66428;47.322;9.432;2024-01-30T11:26:55;5.50;;;2.53;;
77362;SDS011;66428;47.322;9.432;2024-01-30T11:29:24;5.93;;;2.85;;
77362;SDS011;66428;47.322;9.432;2024-01-30T11:31:55;4.65;;;2.30;;
77362;SDS011;66428;47.322;9.432;2024-01-30T11:34:26;4.25;;;2.17;;
77362;SDS011;66428;47.322;9.432;2024-01-30T11:36:59;4.68;;;2.40;;
77362;SDS011;66428;47.322;9.432;2024-01-30T11:39:28;4.40;;;2.17;;
77362;SDS011;66428;47.322;9.432;2024-01-30T11:41:56;6.70;;;2.30;;
77362;SDS011;66428;47.322;9.432;2024-01-30T11:44:27;4.72;;;2.80;;
77362;SDS011;66428;47.322;9.432;2024-01-30T11:46:55;3.88;;;2.20;;
77362;SDS011;66428;47.322;9.432;2024-01-30T11:49:26;5.43;;;2.10;;
77362;SDS011;66428;47.322;9.432;2024-01-30T11:51:58;5.20;;;1.58;;
77362;SDS011;66428;47.322;9.432;2024-01-30T11:54:26;3.72;;;1.85;;
77362;SDS011;66428;47.322;9.432;2024-01-30T11:56:54;4.70;;;2.00;;
77362;SDS011;66428;47.322;9.432;2024-01-30T11:59:21;3.20;;;1.70;;
77362;SDS011;66428;47.322;9.432;2024-01-30T12:01:51;3.65;;;1.73;;
77362;SDS011;66428;47.322;9.432;2024-01-30T12:04:19;3.47;;;1.75;;
77362;SDS011;66428;47.322;9.432;2024-01-30T12:06:50;4.38;;;2.20;;
77362;SDS011;66428;47.322;9.432;2024-01-30T12:09:20;3.15;;;2.08;;
77362;SDS011;66428;47.322;9.432;2024-01-30T12:11:49;2.33;;;1.63;;
77362;SDS011;66428;47.322;9.432;2024-01-30T12:14:17;2.97;;;1.65;;
77362;SDS011;66428;47.322;9.432;2024-01-30T12:16:49;2.58;;;1.35;;
77362;SDS011;66428;47.322;9.432;2024-01-30T12:19:23;3.22;;;1.60;;
77362;SDS011;66428;47.322;9.432;2024-01-30T12:21:54;2.47;;;1.38;;
77362;SDS011;66428;47.322;9.432;2024-01-30T12:24:26;2.78;;;1.60;;
77362;SDS011;66428;47.322;9.432;2024-01-30T12:26:57;4.03;;;1.77;;
77362;SDS011;66428;47.322;9.432;2024-01-30T12:29:25;11.35;;;1.55;;
77362;SDS011;66428;47.322;9.432;2024-01-30T12:32:00;3.83;;;1.65;;
77362;SDS011;66428;47.322;9.432;2024-01-30T12:34:28;3.08;;;1.67;;
77362;SDS011;66428;47.322;9.432;2024-01-30T12:37:01;4.05;;;1.90;;
77362;SDS011;66428;47.322;9.432;2024-01-30T12:39:30;3.83;;;2.10;;
77362;SDS011;66428;47.322;9.432;2024-01-30T12:41:59;4.47;;;1.73;;
77362;SDS011;66428;47.322;9.432;2024-01-30T12:44:27;3.40;;;1.77;;
77362;SDS011;66428;47.322;9.432;2024-01-30T12:46:55;2.90;;;1.75;;
77362;SDS011;66428;47.322;9.432;2024-01-30T12:49:23;4.97;;;1.77;;
77362;SDS011;66428;47.322;9.432;2024-01-30T12:51:51;3.65;;;1.92;;
77362;SDS011;66428;47.322;9.432;2024-01-30T12:54:19;4.18;;;1.70;;
77362;SDS011;66428;47.322;9.432;2024-01-30T12:56:50;4.57;;;2.10;;
77362;SDS011;66428;47.322;9.432;2024-01-30T12:59:21;2.95;;;1.73;;
77362;SDS011;66428;47.322;9.432;2024-01-30T13:01:49;4.40;;;1.73;;
77362;SDS011;66428;47.322;9.432;2024-01-30T13:04:17;3.33;;;1.73;;
77362;SDS011;66428;47.322;9.432;2024-01-30T13:06:45;3.33;;;2.00;;
77362;SDS011;66428;47.322;9.432;2024-01-30T13:09:15;3.55;;;1.88;;
77362;SDS011;66428;47.322;9.432;2024-01-30T13:11:43;3.97;;;2.10;;
77362;SDS011;66428;47.322;9.432;2024-01-30T13:14:12;2.97;;;1.95;;
77362;SDS011;66428;47.322;9.432;2024-01-30T13:16:40;4.00;;;2.13;;
77362;SDS011;66428;47.322;9.432;2024-01-30T13:19:10;2.95;;;1.77;;
77362;SDS011;66428;47.322;9.432;2024-01-30T13:21:38;3.53;;;1.90;;
77362;SDS011;66428;47.322;9.432;2024-01-30T13:24:06;3.25;;;1.65;;
77362;SDS011;66428;47.322;9.432;2024-01-30T13:26:34;5.38;;;2.33;;
77362;SDS011;66428;47.322;9.432;2024-01-30T13:29:04;3.10;;;1.75;;
77362;SDS011;66428;47.322;9.432;2024-01-30T13:31:35;3.70;;;2.28;;
77362;SDS011;66428;47.322;9.432;2024-01-30T13:34:03;7.18;;;2.20;;
77362;SDS011;66428;47.322;9.432;2024-01-30T13:36:36;4.22;;;2.42;;
77362;SDS011;66428;47.322;9.432;2024-01-30T13:39:04;5.93;;;2.72;;
77362;SDS011;66428;47.322;9.432;2024-01-30T13:41:35;7.45;;;3.42;;
77362;SDS011;66428;47.322;9.432;2024-01-30T13:44:03;5.25;;;3.33;;
77362;SDS011;66428;47.322;9.432;2024-01-30T13:46:33;5.65;;;3.35;;
77362;SDS011;66428;47.322;9.432;2024-01-30T13:49:02;6.72;;;3.28;;
77362;SDS011;66428;47.322;9.432;2024-01-30T13:51:31;5.70;;;3.65;;
77362;SDS011;66428;47.322;9.432;2024-01-30T13:53:58;5.53;;;3.30;;
77362;SDS011;66428;47.322;9.432;2024-01-30T13:56:26;6.93;;;3.70;;
77362;SDS011;66428;47.322;9.432;2024-01-30T13:58:57;8.32;;;4.20;;
77362;SDS011;66428;47.322;9.432;2024-01-30T14:01:25;7.80;;;4.05;;
77362;SDS011;66428;47.322;9.432;2024-01-30T14:03:55;5.80;;;3.80;;
77362;SDS011;66428;47.322;9.432;2024-01-30T14:06:24;8.30;;;4.05;;
77362;SDS011;66428;47.322;9.432;2024-01-30T14:08:52;8.02;;;4.47;;
77362;SDS011;66428;47.322;9.432;2024-01-30T14:11:33;6.68;;;4.45;;
77362;SDS011;66428;47.322;9.432;2024-01-30T14:14:00;6.68;;;4.20;;
77362;SDS011;66428;47.322;9.432;2024-01-30T14:16:28;8.27;;;4.40;;
77362;SDS011;66428;47.322;9.432;2024-01-30T14:18:56;5.63;;;3.63;;
77362;SDS011;66428;47.322;9.432;2024-01-30T14:21:26;6.72;;;4.05;;
77362;SDS011;66428;47.322;9.432;2024-01-30T14:23:54;7.00;;;4.30;;
77362;SDS011;66428;47.322;9.432;2024-01-30T14:26:29;6.68;;;4.40;;
77362;SDS011;66428;47.322;9.432;2024-01-30T14:28:57;6.20;;;3.40;;
77362;SDS011;66428;47.322;9.432;2024-01-30T14:31:27;7.35;;;3.60;;
77362;SDS011;66428;47.322;9.432;2024-01-30T14:33:57;6.13;;;3.60;;
77362;SDS011;66428;47.322;9.432;2024-01-30T14:36:27;8.43;;;3.08;;
77362;SDS011;66428;47.322;9.432;2024-01-30T14:38:55;11.07;;;3.22;;
77362;SDS011;66428;47.322;9.432;2024-01-30T14:41:23;7.07;;;3.70;;
77362;SDS011;66428;47.322;9.432;2024-01-30T14:43:51;4.75;;;2.75;;
77362;SDS011;66428;47.322;9.432;2024-01-30T14:46:18;6.50;;;3.10;;
77362;SDS011;66428;47.322;9.432;2024-01-30T14:48:46;6.35;;;3.05;;
77362;SDS011;66428;47.322;9.432;2024-01-30T14:51:15;6.63;;;3.65;;
77362;SDS011;66428;47.322;9.432;2024-01-30T14:53:46;4.88;;;2.90;;
77362;SDS011;66428;47.322;9.432;2024-01-30T14:56:17;6.22;;;3.20;;
77362;SDS011;66428;47.322;9.432;2024-01-30T14:58:47;6.43;;;3.47;;